sensor_id;sensor_type;location;lat;lon;timestamp;temperature;humidity
37782;DHT22;23621;50.878;4.584;2023-03-01T00:02:22;6.70;53.00
37782;DHT22;23621;50.878;4.584;2023-03-01T00:05:08;6.60;53.00
37782;DHT22;23621;50.878;4.584;2023-03-01T00:07:35;6.60;53.10
37782;DHT22;23621;50.878;4.584;2023-03-01T00:10:02;6.60;53.10
37782;DHT22;23621;50.878;4.584;2023-03-01T00:12:31;6.50;53.20
37782;DHT22;23621;50.878;4.584;2023-03-01T00:14:58;6.50;53.20
37782;DHT22;23621;50.878;4.584;2023-03-01T00:17:28;6.50;53.30
37782;DHT22;23621;50.878;4.584;2023-03-01T00:20:14;6.50;53.30
37782;DHT22;23621;50.878;4.584;2023-03-01T00:22:41;6.50;54.00
37782;DHT22;23621;50.878;4.584;2023-03-01T00:25:08;6.50;53.30
37782;DHT22;23621;50.878;4.584;2023-03-01T00:27:35;6.40;53.30
37782;DHT22;23621;50.878;4.584;2023-03-01T00:30:02;6.50;53.40
37782;DHT22;23621;50.878;4.584;2023-03-01T00:32:29;6.40;53.50
37782;DHT22;23621;50.878;4.584;2023-03-01T00:34:56;6.40;53.50
37782;DHT22;23621;50.878;4.584;2023-03-01T00:37:32;6.40;53.50
37782;DHT22;23621;50.878;4.584;2023-03-01T00:39:59;6.40;53.50
37782;DHT22;23621;50.878;4.584;2023-03-01T00:42:28;6.30;53.50
37782;DHT22;23621;50.878;4.584;2023-03-01T00:44:58;6.30;53.60
37782;DHT22;23621;50.878;4.584;2023-03-01T00:47:44;6.30;53.60
37782;DHT22;23621;50.878;4.584;2023-03-01T00:50:12;6.30;53.60
37782;DHT22;23621;50.878;4.584;2023-03-01T00:52:39;6.30;53.70
37782;DHT22;23621;50.878;4.584;2023-03-01T00:55:08;6.20;53.70
37782;DHT22;23621;50.878;4.584;2023-03-01T00:57:35;6.20;53.80
37782;DHT22;23621;50.878;4.584;2023-03-01T01:00:06;6.20;53.70
37782;DHT22;23621;50.878;4.584;2023-03-01T01:02:34;6.20;53.80
37782;DHT22;23621;50.878;4.584;2023-03-01T01:05:01;6.20;53.80
37782;DHT22;23621;50.878;4.584;2023-03-01T01:07:28;6.20;53.80
37782;DHT22;23621;50.878;4.584;2023-03-01T01:09:55;6.20;53.80
37782;DHT22;23621;50.878;4.584;2023-03-01T01:12:22;6.20;53.80
37782;DHT22;23621;50.878;4.584;2023-03-01T01:14:51;6.20;53.70
37782;DHT22;23621;50.878;4.584;2023-03-01T01:17:31;6.20;53.80
37782;DHT22;23621;50.878;4.584;2023-03-01T01:19:58;6.20;53.70
37782;DHT22;23621;50.878;4.584;2023-03-01T01:22:24;6.20;53.70
37782;DHT22;23621;50.878;4.584;2023-03-01T01:25:10;6.10;53.70
37782;DHT22;23621;50.878;4.584;2023-03-01T01:27:37;6.10;53.80
37782;DHT22;23621;50.878;4.584;2023-03-01T01:30:04;6.10;53.70
37782;DHT22;23621;50.878;4.584;2023-03-01T01:32:31;6.10;53.70
37782;DHT22;23621;50.878;4.584;2023-03-01T01:34:58;6.10;53.70
37782;DHT22;23621;50.878;4.584;2023-03-01T01:37:25;6.00;53.60
37782;DHT22;23621;50.878;4.584;2023-03-01T01:40:01;6.00;53.70
37782;DHT22;23621;50.878;4.584;2023-03-01T01:42:30;6.00;53.80
37782;DHT22;23621;50.878;4.584;2023-03-01T01:47:55;6.00;53.90
37782;DHT22;23621;50.878;4.584;2023-03-01T01:50:23;5.90;53.70
37782;DHT22;23621;50.878;4.584;2023-03-01T01:52:57;5.90;53.70
37782;DHT22;23621;50.878;4.584;2023-03-01T01:55:26;5.90;53.60
37782;DHT22;23621;50.878;4.584;2023-03-01T01:58:02;5.90;53.70
37782;DHT22;23621;50.878;4.584;2023-03-01T02:00:48;5.90;53.70
37782;DHT22;23621;50.878;4.584;2023-03-01T02:03:20;5.90;53.70
37782;DHT22;23621;50.878;4.584;2023-03-01T02:06:24;5.90;53.70
37782;DHT22;23621;50.878;4.584;2023-03-01T02:08:59;5.90;53.70
37782;DHT22;23621;50.878;4.584;2023-03-01T02:11:45;5.90;53.70
37782;DHT22;23621;50.878;4.584;2023-03-01T02:14:14;5.90;53.70
37782;DHT22;23621;50.878;4.584;2023-03-01T02:16:42;5.90;53.70
37782;DHT22;23621;50.878;4.584;2023-03-01T02:19:17;5.80;53.60
37782;DHT22;23621;50.878;4.584;2023-03-01T02:25:07;5.80;53.70
37782;DHT22;23621;50.878;4.584;2023-03-01T02:30:21;5.70;53.60
37782;DHT22;23621;50.878;4.584;2023-03-01T02:32:50;5.70;53.70
37782;DHT22;23621;50.878;4.584;2023-03-01T02:35:21;5.70;53.70
37782;DHT22;23621;50.878;4.584;2023-03-01T02:37:48;5.70;53.80
37782;DHT22;23621;50.878;4.584;2023-03-01T02:40:18;5.70;53.80
37782;DHT22;23621;50.878;4.584;2023-03-01T02:42:54;5.60;53.70
37782;DHT22;23621;50.878;4.584;2023-03-01T02:45:22;5.70;53.80
37782;DHT22;23621;50.878;4.584;2023-03-01T02:48:08;5.60;53.70
37782;DHT22;23621;50.878;4.584;2023-03-01T02:51:34;5.60;53.60
37782;DHT22;23621;50.878;4.584;2023-03-01T02:56:15;5.60;53.80
37782;DHT22;23621;50.878;4.584;2023-03-01T02:58:43;5.50;53.80
37782;DHT22;23621;50.878;4.584;2023-03-01T03:01:19;5.50;53.80
37782;DHT22;23621;50.878;4.584;2023-03-01T03:03:46;5.50;53.90
37782;DHT22;23621;50.878;4.584;2023-03-01T03:06:13;5.50;53.90
37782;DHT22;23621;50.878;4.584;2023-03-01T03:08:40;5.50;53.90
37782;DHT22;23621;50.878;4.584;2023-03-01T03:11:07;5.50;53.80
37782;DHT22;23621;50.878;4.584;2023-03-01T03:13:34;5.50;53.90
37782;DHT22;23621;50.878;4.584;2023-03-01T03:16:02;5.50;53.80
37782;DHT22;23621;50.878;4.584;2023-03-01T03:18:30;5.50;54.00
37782;DHT22;23621;50.878;4.584;2023-03-01T03:20:57;5.40;53.90
37782;DHT22;23621;50.878;4.584;2023-03-01T03:23:24;5.40;53.90
37782;DHT22;23621;50.878;4.584;2023-03-01T03:25:51;5.40;53.90
37782;DHT22;23621;50.878;4.584;2023-03-01T03:28:18;5.40;53.80
37782;DHT22;23621;50.878;4.584;2023-03-01T03:31:06;5.30;53.90
37782;DHT22;23621;50.878;4.584;2023-03-01T03:33:35;5.30;54.10
37782;DHT22;23621;50.878;4.584;2023-03-01T03:36:03;5.30;54.10
37782;DHT22;23621;50.878;4.584;2023-03-01T03:38:36;5.30;54.20
37782;DHT22;23621;50.878;4.584;2023-03-01T03:41:05;5.30;54.10
37782;DHT22;23621;50.878;4.584;2023-03-01T03:43:36;5.30;54.10
37782;DHT22;23621;50.878;4.584;2023-03-01T03:46:04;5.30;54.10
37782;DHT22;23621;50.878;4.584;2023-03-01T03:48:52;5.30;54.00
37782;DHT22;23621;50.878;4.584;2023-03-01T03:51:19;5.30;54.00
37782;DHT22;23621;50.878;4.584;2023-03-01T03:53:49;5.30;54.00
37782;DHT22;23621;50.878;4.584;2023-03-01T03:56:16;5.20;53.90
37782;DHT22;23621;50.878;4.584;2023-03-01T03:58:43;5.20;53.70
37782;DHT22;23621;50.878;4.584;2023-03-01T04:01:12;5.20;53.90
37782;DHT22;23621;50.878;4.584;2023-03-01T04:03:39;5.20;53.80
37782;DHT22;23621;50.878;4.584;2023-03-01T04:06:08;5.20;54.50
37782;DHT22;23621;50.878;4.584;2023-03-01T04:08:35;5.20;53.70
37782;DHT22;23621;50.878;4.584;2023-03-01T04:11:03;5.10;53.60
37782;DHT22;23621;50.878;4.584;2023-03-01T04:14:09;5.10;53.80
37782;DHT22;23621;50.878;4.584;2023-03-01T04:16:36;5.20;53.80
37782;DHT22;23621;50.878;4.584;2023-03-01T04:19:03;5.10;53.70
37782;DHT22;23621;50.878;4.584;2023-03-01T04:21:33;5.10;53.80
37782;DHT22;23621;50.878;4.584;2023-03-01T04:24:00;5.10;53.70
37782;DHT22;23621;50.878;4.584;2023-03-01T04:26:26;5.10;53.70
37782;DHT22;23621;50.878;4.584;2023-03-01T04:28:54;5.10;53.80
37782;DHT22;23621;50.878;4.584;2023-03-01T04:31:21;5.10;53.90
37782;DHT22;23621;50.878;4.584;2023-03-01T04:33:51;5.10;53.90
37782;DHT22;23621;50.878;4.584;2023-03-01T04:36:21;5.00;53.90
37782;DHT22;23621;50.878;4.584;2023-03-01T04:38:49;5.00;54.10
37782;DHT22;23621;50.878;4.584;2023-03-01T04:41:19;5.00;54.00
37782;DHT22;23621;50.878;4.584;2023-03-01T04:43:47;5.00;54.00
37782;DHT22;23621;50.878;4.584;2023-03-01T04:46:17;5.00;54.00
37782;DHT22;23621;50.878;4.584;2023-03-01T04:48:46;5.00;54.10
37782;DHT22;23621;50.878;4.584;2023-03-01T04:51:14;5.00;54.10
37782;DHT22;23621;50.878;4.584;2023-03-01T04:53:42;5.00;54.10
37782;DHT22;23621;50.878;4.584;2023-03-01T04:56:10;4.90;54.20
37782;DHT22;23621;50.878;4.584;2023-03-01T04:58:37;5.00;54.20
37782;DHT22;23621;50.878;4.584;2023-03-01T05:01:15;4.90;54.10
37782;DHT22;23621;50.878;4.584;2023-03-01T05:04:01;5.00;54.30
37782;DHT22;23621;50.878;4.584;2023-03-01T05:06:30;4.90;54.10
37782;DHT22;23621;50.878;4.584;2023-03-01T05:08:57;4.90;54.10
37782;DHT22;23621;50.878;4.584;2023-03-01T05:11:24;4.90;54.20
37782;DHT22;23621;50.878;4.584;2023-03-01T05:13:51;4.90;54.10
37782;DHT22;23621;50.878;4.584;2023-03-01T05:16:21;4.90;54.20
37782;DHT22;23621;50.878;4.584;2023-03-01T05:18:48;4.90;54.20
37782;DHT22;23621;50.878;4.584;2023-03-01T05:21:17;4.90;54.40
37782;DHT22;23621;50.878;4.584;2023-03-01T05:23:45;4.80;54.40
37782;DHT22;23621;50.878;4.584;2023-03-01T05:26:17;4.80;54.40
37782;DHT22;23621;50.878;4.584;2023-03-01T05:28:55;4.90;54.60
37782;DHT22;23621;50.878;4.584;2023-03-01T05:31:26;4.90;54.60
37782;DHT22;23621;50.878;4.584;2023-03-01T05:33:53;4.90;54.50
37782;DHT22;23621;50.878;4.584;2023-03-01T05:36:38;4.90;54.50
37782;DHT22;23621;50.878;4.584;2023-03-01T05:39:05;4.80;54.50
37782;DHT22;23621;50.878;4.584;2023-03-01T05:41:35;4.90;54.50
37782;DHT22;23621;50.878;4.584;2023-03-01T05:44:21;4.90;54.40
37782;DHT22;23621;50.878;4.584;2023-03-01T05:46:48;4.80;54.50
37782;DHT22;23621;50.878;4.584;2023-03-01T05:49:16;4.80;54.50
37782;DHT22;23621;50.878;4.584;2023-03-01T05:51:50;4.80;54.40
37782;DHT22;23621;50.878;4.584;2023-03-01T05:54:19;4.80;54.50
37782;DHT22;23621;50.878;4.584;2023-03-01T05:56:46;4.80;54.40
37782;DHT22;23621;50.878;4.584;2023-03-01T05:59:13;4.80;54.30
37782;DHT22;23621;50.878;4.584;2023-03-01T06:01:43;4.80;54.30
37782;DHT22;23621;50.878;4.584;2023-03-01T06:04:10;4.70;54.10
37782;DHT22;23621;50.878;4.584;2023-03-01T06:06:38;4.70;54.10
37782;DHT22;23621;50.878;4.584;2023-03-01T06:09:06;4.70;54.10
37782;DHT22;23621;50.878;4.584;2023-03-01T06:11:36;4.60;54.10
37782;DHT22;23621;50.878;4.584;2023-03-01T06:14:06;4.60;54.10
37782;DHT22;23621;50.878;4.584;2023-03-01T06:16:53;4.60;54.20
37782;DHT22;23621;50.878;4.584;2023-03-01T06:19:20;4.60;54.10
37782;DHT22;23621;50.878;4.584;2023-03-01T06:21:47;4.60;54.20
37782;DHT22;23621;50.878;4.584;2023-03-01T06:24:14;4.60;54.10
37782;DHT22;23621;50.878;4.584;2023-03-01T06:26:53;4.60;54.10
37782;DHT22;23621;50.878;4.584;2023-03-01T06:29:20;4.60;54.10
37782;DHT22;23621;50.878;4.584;2023-03-01T06:31:47;4.60;54.00
37782;DHT22;23621;50.878;4.584;2023-03-01T06:34:14;4.60;54.10
37782;DHT22;23621;50.878;4.584;2023-03-01T06:36:59;4.60;54.00
37782;DHT22;23621;50.878;4.584;2023-03-01T06:39:29;4.60;54.10
37782;DHT22;23621;50.878;4.584;2023-03-01T06:41:56;4.60;54.00
37782;DHT22;23621;50.878;4.584;2023-03-01T06:44:25;4.50;54.00
37782;DHT22;23621;50.878;4.584;2023-03-01T06:46:52;4.50;54.00
37782;DHT22;23621;50.878;4.584;2023-03-01T06:49:20;4.50;54.00
37782;DHT22;23621;50.878;4.584;2023-03-01T06:51:47;4.50;54.20
37782;DHT22;23621;50.878;4.584;2023-03-01T06:54:14;4.50;54.10
37782;DHT22;23621;50.878;4.584;2023-03-01T06:56:41;4.60;54.20
37782;DHT22;23621;50.878;4.584;2023-03-01T06:59:08;4.50;54.10
37782;DHT22;23621;50.878;4.584;2023-03-01T07:01:35;4.50;54.10
37782;DHT22;23621;50.878;4.584;2023-03-01T07:04:02;4.50;54.20
37782;DHT22;23621;50.878;4.584;2023-03-01T07:06:30;4.60;54.40
37782;DHT22;23621;50.878;4.584;2023-03-01T07:08:57;4.60;54.40
37782;DHT22;23621;50.878;4.584;2023-03-01T07:11:25;4.60;54.40
37782;DHT22;23621;50.878;4.584;2023-03-01T07:13:52;4.60;54.60
37782;DHT22;23621;50.878;4.584;2023-03-01T07:16:19;4.60;54.60
37782;DHT22;23621;50.878;4.584;2023-03-01T07:18:47;4.60;54.80
37782;DHT22;23621;50.878;4.584;2023-03-01T07:21:32;4.70;55.00
37782;DHT22;23621;50.878;4.584;2023-03-01T07:23:59;4.70;55.10
37782;DHT22;23621;50.878;4.584;2023-03-01T07:26:32;4.80;55.10
37782;DHT22;23621;50.878;4.584;2023-03-01T07:29:00;4.80;55.20
37782;DHT22;23621;50.878;4.584;2023-03-01T07:31:45;4.90;55.30
37782;DHT22;23621;50.878;4.584;2023-03-01T07:34:12;4.90;55.30
37782;DHT22;23621;50.878;4.584;2023-03-01T07:36:42;5.00;55.50
37782;DHT22;23621;50.878;4.584;2023-03-01T07:39:10;5.00;55.50
37782;DHT22;23621;50.878;4.584;2023-03-01T07:41:38;5.10;55.70
37782;DHT22;23621;50.878;4.584;2023-03-01T07:44:07;5.20;55.70
37782;DHT22;23621;50.878;4.584;2023-03-01T07:46:34;5.20;55.60
37782;DHT22;23621;50.878;4.584;2023-03-01T07:49:01;5.30;55.70
37782;DHT22;23621;50.878;4.584;2023-03-01T07:51:46;5.40;55.80
37782;DHT22;23621;50.878;4.584;2023-03-01T07:54:13;5.40;55.80
37782;DHT22;23621;50.878;4.584;2023-03-01T07:56:40;5.50;55.80
37782;DHT22;23621;50.878;4.584;2023-03-01T07:59:10;5.50;55.90
37782;DHT22;23621;50.878;4.584;2023-03-01T08:01:37;5.60;55.90
37782;DHT22;23621;50.878;4.584;2023-03-01T08:04:04;5.60;55.90
37782;DHT22;23621;50.878;4.584;2023-03-01T08:06:35;5.60;55.80
37782;DHT22;23621;50.878;4.584;2023-03-01T08:09:02;5.70;56.00
37782;DHT22;23621;50.878;4.584;2023-03-01T08:11:29;5.70;55.90
37782;DHT22;23621;50.878;4.584;2023-03-01T08:13:56;5.80;55.90
37782;DHT22;23621;50.878;4.584;2023-03-01T08:16:42;5.90;56.10
37782;DHT22;23621;50.878;4.584;2023-03-01T08:19:11;5.90;55.90
37782;DHT22;23621;50.878;4.584;2023-03-01T08:21:56;5.90;55.90
37782;DHT22;23621;50.878;4.584;2023-03-01T08:24:25;6.00;56.00
37782;DHT22;23621;50.878;4.584;2023-03-01T08:27:10;6.00;55.90
37782;DHT22;23621;50.878;4.584;2023-03-01T08:29:38;6.00;56.00
37782;DHT22;23621;50.878;4.584;2023-03-01T08:32:24;6.10;56.00
37782;DHT22;23621;50.878;4.584;2023-03-01T08:34:51;6.10;56.00
37782;DHT22;23621;50.878;4.584;2023-03-01T08:37:18;6.10;56.00
37782;DHT22;23621;50.878;4.584;2023-03-01T08:39:46;6.20;56.10
37782;DHT22;23621;50.878;4.584;2023-03-01T08:42:13;6.20;56.10
37782;DHT22;23621;50.878;4.584;2023-03-01T08:44:42;6.30;56.30
37782;DHT22;23621;50.878;4.584;2023-03-01T08:47:12;6.30;56.30
37782;DHT22;23621;50.878;4.584;2023-03-01T08:49:39;6.30;56.20
37782;DHT22;23621;50.878;4.584;2023-03-01T08:52:21;6.30;56.20
37782;DHT22;23621;50.878;4.584;2023-03-01T08:54:49;6.30;56.30
37782;DHT22;23621;50.878;4.584;2023-03-01T08:57:30;6.40;56.30
37782;DHT22;23621;50.878;4.584;2023-03-01T08:59:58;6.40;56.40
37782;DHT22;23621;50.878;4.584;2023-03-01T09:02:25;6.50;56.30
37782;DHT22;23621;50.878;4.584;2023-03-01T09:04:52;6.50;56.30
37782;DHT22;23621;50.878;4.584;2023-03-01T09:07:19;6.60;56.30
37782;DHT22;23621;50.878;4.584;2023-03-01T09:09:46;6.60;56.40
37782;DHT22;23621;50.878;4.584;2023-03-01T09:12:13;6.60;56.30
37782;DHT22;23621;50.878;4.584;2023-03-01T09:14:40;6.60;56.30
37782;DHT22;23621;50.878;4.584;2023-03-01T09:17:07;6.70;56.40
37782;DHT22;23621;50.878;4.584;2023-03-01T09:19:34;6.70;56.20
37782;DHT22;23621;50.878;4.584;2023-03-01T09:22:20;6.80;56.30
37782;DHT22;23621;50.878;4.584;2023-03-01T09:24:47;6.80;56.30
37782;DHT22;23621;50.878;4.584;2023-03-01T09:27:14;6.90;56.20
37782;DHT22;23621;50.878;4.584;2023-03-01T09:29:41;6.90;56.20
37782;DHT22;23621;50.878;4.584;2023-03-01T09:32:08;7.00;56.10
37782;DHT22;23621;50.878;4.584;2023-03-01T09:34:35;7.10;56.20
37782;DHT22;23621;50.878;4.584;2023-03-01T09:37:41;7.10;56.20
37782;DHT22;23621;50.878;4.584;2023-03-01T09:40:17;7.10;56.20
37782;DHT22;23621;50.878;4.584;2023-03-01T09:43:05;7.20;56.20
37782;DHT22;23621;50.878;4.584;2023-03-01T09:45:39;7.30;56.20
37782;DHT22;23621;50.878;4.584;2023-03-01T09:48:15;7.40;56.20
37782;DHT22;23621;50.878;4.584;2023-03-01T09:50:43;7.40;56.00
37782;DHT22;23621;50.878;4.584;2023-03-01T09:53:14;7.40;55.80
37782;DHT22;23621;50.878;4.584;2023-03-01T09:55:55;7.40;55.80
37782;DHT22;23621;50.878;4.584;2023-03-01T09:58:59;7.50;55.70
37782;DHT22;23621;50.878;4.584;2023-03-01T10:02:01;7.50;55.50
37782;DHT22;23621;50.878;4.584;2023-03-01T10:04:50;7.60;55.30
37782;DHT22;23621;50.878;4.584;2023-03-01T10:09:52;7.70;55.10
37782;DHT22;23621;50.878;4.584;2023-03-01T10:12:34;7.80;54.90
37782;DHT22;23621;50.878;4.584;2023-03-01T10:15:11;7.90;55.00
37782;DHT22;23621;50.878;4.584;2023-03-01T10:17:55;7.90;54.70
37782;DHT22;23621;50.878;4.584;2023-03-01T10:20:26;8.00;54.70
37782;DHT22;23621;50.878;4.584;2023-03-01T10:22:56;8.00;54.70
37782;DHT22;23621;50.878;4.584;2023-03-01T10:31:48;8.20;54.30
37782;DHT22;23621;50.878;4.584;2023-03-01T10:34:28;8.20;54.10
37782;DHT22;23621;50.878;4.584;2023-03-01T10:37:14;8.30;54.10
37782;DHT22;23621;50.878;4.584;2023-03-01T10:42:33;8.40;53.70
37782;DHT22;23621;50.878;4.584;2023-03-01T10:48:19;8.50;53.40
37782;DHT22;23621;50.878;4.584;2023-03-01T10:51:05;8.50;53.40
37782;DHT22;23621;50.878;4.584;2023-03-01T10:53:40;8.60;53.40
37782;DHT22;23621;50.878;4.584;2023-03-01T10:56:13;8.70;53.50
37782;DHT22;23621;50.878;4.584;2023-03-01T11:01:34;8.80;53.10
37782;DHT22;23621;50.878;4.584;2023-03-01T11:06:59;8.90;52.80
37782;DHT22;23621;50.878;4.584;2023-03-01T11:09:31;8.90;52.60
37782;DHT22;23621;50.878;4.584;2023-03-01T11:12:14;9.00;52.70
37782;DHT22;23621;50.878;4.584;2023-03-01T11:14:51;9.10;52.70
37782;DHT22;23621;50.878;4.584;2023-03-01T11:17:28;9.10;52.30
37782;DHT22;23621;50.878;4.584;2023-03-01T11:20:33;9.10;52.70
37782;DHT22;23621;50.878;4.584;2023-03-01T11:23:12;9.10;51.60
37782;DHT22;23621;50.878;4.584;2023-03-01T11:25:58;9.20;51.60
37782;DHT22;23621;50.878;4.584;2023-03-01T11:28:28;9.30;51.90
37782;DHT22;23621;50.878;4.584;2023-03-01T11:31:10;9.30;51.70
37782;DHT22;23621;50.878;4.584;2023-03-01T11:33:49;9.40;51.70
37782;DHT22;23621;50.878;4.584;2023-03-01T11:36:49;9.40;51.60
37782;DHT22;23621;50.878;4.584;2023-03-01T11:39:51;9.50;51.30
37782;DHT22;23621;50.878;4.584;2023-03-01T11:42:21;9.50;51.30
37782;DHT22;23621;50.878;4.584;2023-03-01T11:44:55;9.50;51.30
37782;DHT22;23621;50.878;4.584;2023-03-01T11:50:35;9.70;51.20
37782;DHT22;23621;50.878;4.584;2023-03-01T11:56:03;9.70;50.70
37782;DHT22;23621;50.878;4.584;2023-03-01T11:58:38;9.70;50.60
37782;DHT22;23621;50.878;4.584;2023-03-01T12:18:06;10.00;48.70
37782;DHT22;23621;50.878;4.584;2023-03-01T12:51:13;10.50;47.40
37782;DHT22;23621;50.878;4.584;2023-03-01T12:53:47;10.50;47.30
37782;DHT22;23621;50.878;4.584;2023-03-01T12:56:22;10.60;47.00
37782;DHT22;23621;50.878;4.584;2023-03-01T13:04:28;10.70;46.80
37782;DHT22;23621;50.878;4.584;2023-03-01T13:15:34;10.80;46.60
37782;DHT22;23621;50.878;4.584;2023-03-01T13:20:56;10.80;46.20
37782;DHT22;23621;50.878;4.584;2023-03-01T13:23:30;10.90;46.40
37782;DHT22;23621;50.878;4.584;2023-03-01T13:26:15;10.90;46.40
37782;DHT22;23621;50.878;4.584;2023-03-01T13:28:47;10.90;46.10
37782;DHT22;23621;50.878;4.584;2023-03-01T13:33:54;11.00;46.30
37782;DHT22;23621;50.878;4.584;2023-03-01T13:39:04;11.10;46.20
37782;DHT22;23621;50.878;4.584;2023-03-01T13:50:02;11.20;46.00
37782;DHT22;23621;50.878;4.584;2023-03-01T13:52:42;11.20;46.00
37782;DHT22;23621;50.878;4.584;2023-03-01T13:55:36;11.30;45.90
37782;DHT22;23621;50.878;4.584;2023-03-01T14:00:47;11.30;45.90
37782;DHT22;23621;50.878;4.584;2023-03-01T14:03:21;11.40;46.10
37782;DHT22;23621;50.878;4.584;2023-03-01T14:06:20;11.40;45.90
37782;DHT22;23621;50.878;4.584;2023-03-01T14:08:50;11.40;46.10
37782;DHT22;23621;50.878;4.584;2023-03-01T14:11:52;11.40;46.10
37782;DHT22;23621;50.878;4.584;2023-03-01T14:19:43;11.50;46.20
37782;DHT22;23621;50.878;4.584;2023-03-01T14:22:33;11.50;46.10
37782;DHT22;23621;50.878;4.584;2023-03-01T14:25:17;11.50;46.10
37782;DHT22;23621;50.878;4.584;2023-03-01T14:27:55;11.60;45.90
37782;DHT22;23621;50.878;4.584;2023-03-01T14:30:26;11.60;45.90
37782;DHT22;23621;50.878;4.584;2023-03-01T14:32:58;11.60;45.80
37782;DHT22;23621;50.878;4.584;2023-03-01T14:35:59;11.70;45.80
37782;DHT22;23621;50.878;4.584;2023-03-01T14:38:47;11.60;45.60
37782;DHT22;23621;50.878;4.584;2023-03-01T14:44:06;11.70;45.50
37782;DHT22;23621;50.878;4.584;2023-03-01T14:46:38;11.70;45.50
37782;DHT22;23621;50.878;4.584;2023-03-01T14:49:19;11.70;45.30
37782;DHT22;23621;50.878;4.584;2023-03-01T14:54:29;11.80;45.20
37782;DHT22;23621;50.878;4.584;2023-03-01T14:57:00;11.80;45.40
37782;DHT22;23621;50.878;4.584;2023-03-01T14:59:27;11.80;45.30
37782;DHT22;23621;50.878;4.584;2023-03-01T15:01:57;11.80;45.20
37782;DHT22;23621;50.878;4.584;2023-03-01T15:04:26;11.90;44.90
37782;DHT22;23621;50.878;4.584;2023-03-01T15:06:55;11.80;44.80
37782;DHT22;23621;50.878;4.584;2023-03-01T15:09:34;11.90;44.80
37782;DHT22;23621;50.878;4.584;2023-03-01T15:14:56;11.90;44.60
37782;DHT22;23621;50.878;4.584;2023-03-01T15:17:37;11.90;44.70
37782;DHT22;23621;50.878;4.584;2023-03-01T15:20:17;12.00;44.80
37782;DHT22;23621;50.878;4.584;2023-03-01T15:22:47;12.00;44.60
37782;DHT22;23621;50.878;4.584;2023-03-01T15:25:34;12.00;44.70
37782;DHT22;23621;50.878;4.584;2023-03-01T15:28:02;12.00;44.50
37782;DHT22;23621;50.878;4.584;2023-03-01T15:30:54;12.00;44.40
37782;DHT22;23621;50.878;4.584;2023-03-01T15:36:02;12.00;44.60
37782;DHT22;23621;50.878;4.584;2023-03-01T15:38:33;12.00;44.70
37782;DHT22;23621;50.878;4.584;2023-03-01T15:41:21;12.00;44.40
37782;DHT22;23621;50.878;4.584;2023-03-01T15:43:49;12.00;44.30
37782;DHT22;23621;50.878;4.584;2023-03-01T15:46:36;12.00;44.10
37782;DHT22;23621;50.878;4.584;2023-03-01T15:51:54;12.10;44.20
37782;DHT22;23621;50.878;4.584;2023-03-01T15:54:24;12.10;43.90
37782;DHT22;23621;50.878;4.584;2023-03-01T15:56:53;12.10;43.90
37782;DHT22;23621;50.878;4.584;2023-03-01T15:59:21;12.00;43.70
37782;DHT22;23621;50.878;4.584;2023-03-01T16:01:49;12.00;43.70
37782;DHT22;23621;50.878;4.584;2023-03-01T16:04:18;12.00;43.70
37782;DHT22;23621;50.878;4.584;2023-03-01T16:06:50;12.00;43.80
37782;DHT22;23621;50.878;4.584;2023-03-01T16:09:25;12.00;43.50
37782;DHT22;23621;50.878;4.584;2023-03-01T16:11:53;12.00;43.40
37782;DHT22;23621;50.878;4.584;2023-03-01T16:14:20;12.00;43.50
37782;DHT22;23621;50.878;4.584;2023-03-01T16:16:48;12.10;43.40
37782;DHT22;23621;50.878;4.584;2023-03-01T16:19:16;12.00;43.40
37782;DHT22;23621;50.878;4.584;2023-03-01T16:21:43;12.00;43.20
37782;DHT22;23621;50.878;4.584;2023-03-01T16:24:14;12.00;43.40
37782;DHT22;23621;50.878;4.584;2023-03-01T16:26:41;12.00;43.50
37782;DHT22;23621;50.878;4.584;2023-03-01T16:29:11;12.00;43.60
37782;DHT22;23621;50.878;4.584;2023-03-01T16:31:39;12.00;43.80
37782;DHT22;23621;50.878;4.584;2023-03-01T16:34:09;12.00;44.50
37782;DHT22;23621;50.878;4.584;2023-03-01T16:36:36;12.00;44.00
37782;DHT22;23621;50.878;4.584;2023-03-01T16:39:04;12.00;44.00
37782;DHT22;23621;50.878;4.584;2023-03-01T16:41:31;12.00;44.00
37782;DHT22;23621;50.878;4.584;2023-03-01T16:43:58;12.00;43.90
37782;DHT22;23621;50.878;4.584;2023-03-01T16:46:27;11.90;43.80
37782;DHT22;23621;50.878;4.584;2023-03-01T16:48:57;11.90;44.00
37782;DHT22;23621;50.878;4.584;2023-03-01T16:51:42;11.90;44.00
37782;DHT22;23621;50.878;4.584;2023-03-01T16:54:11;11.90;44.10
37782;DHT22;23621;50.878;4.584;2023-03-01T16:56:58;11.90;44.10
37782;DHT22;23621;50.878;4.584;2023-03-01T16:59:26;11.80;44.20
37782;DHT22;23621;50.878;4.584;2023-03-01T17:01:53;11.80;44.30
37782;DHT22;23621;50.878;4.584;2023-03-01T17:04:20;11.80;44.40
37782;DHT22;23621;50.878;4.584;2023-03-01T17:06:47;11.80;44.60
37782;DHT22;23621;50.878;4.584;2023-03-01T17:09:15;11.70;44.60
37782;DHT22;23621;50.878;4.584;2023-03-01T17:11:44;11.70;44.70
37782;DHT22;23621;50.878;4.584;2023-03-01T17:14:11;11.70;44.70
37782;DHT22;23621;50.878;4.584;2023-03-01T17:16:38;11.70;44.90
37782;DHT22;23621;50.878;4.584;2023-03-01T17:19:06;11.70;45.00
37782;DHT22;23621;50.878;4.584;2023-03-01T17:21:33;11.60;45.20
37782;DHT22;23621;50.878;4.584;2023-03-01T17:24:01;11.70;45.30
37782;DHT22;23621;50.878;4.584;2023-03-01T17:26:46;11.60;45.30
37782;DHT22;23621;50.878;4.584;2023-03-01T17:29:13;11.60;45.40
37782;DHT22;23621;50.878;4.584;2023-03-01T17:31:44;11.60;45.60
37782;DHT22;23621;50.878;4.584;2023-03-01T17:34:12;11.50;45.50
37782;DHT22;23621;50.878;4.584;2023-03-01T17:36:39;11.50;46.20
37782;DHT22;23621;50.878;4.584;2023-03-01T17:39:10;11.50;45.70
37782;DHT22;23621;50.878;4.584;2023-03-01T17:41:37;11.50;45.70
37782;DHT22;23621;50.878;4.584;2023-03-01T17:44:04;11.50;45.80
37782;DHT22;23621;50.878;4.584;2023-03-01T17:46:50;11.50;45.90
37782;DHT22;23621;50.878;4.584;2023-03-01T17:49:18;11.40;46.00
37782;DHT22;23621;50.878;4.584;2023-03-01T17:51:46;11.40;46.00
37782;DHT22;23621;50.878;4.584;2023-03-01T17:54:13;11.40;46.00
37782;DHT22;23621;50.878;4.584;2023-03-01T17:56:59;11.40;46.10
37782;DHT22;23621;50.878;4.584;2023-03-01T17:59:29;11.30;46.20
37782;DHT22;23621;50.878;4.584;2023-03-01T18:01:59;11.30;46.20
37782;DHT22;23621;50.878;4.584;2023-03-01T18:04:30;11.30;46.00
37782;DHT22;23621;50.878;4.584;2023-03-01T18:06:58;11.30;46.10
37782;DHT22;23621;50.878;4.584;2023-03-01T18:09:27;11.30;46.20
37782;DHT22;23621;50.878;4.584;2023-03-01T18:11:54;11.30;46.30
37782;DHT22;23621;50.878;4.584;2023-03-01T18:14:21;11.30;46.30
37782;DHT22;23621;50.878;4.584;2023-03-01T18:16:51;11.20;46.20
37782;DHT22;23621;50.878;4.584;2023-03-01T18:19:19;11.20;46.30
37782;DHT22;23621;50.878;4.584;2023-03-01T18:22:07;11.20;46.30
37782;DHT22;23621;50.878;4.584;2023-03-01T18:24:36;11.10;46.30
37782;DHT22;23621;50.878;4.584;2023-03-01T18:27:22;11.10;46.30
37782;DHT22;23621;50.878;4.584;2023-03-01T18:29:50;11.10;46.40
37782;DHT22;23621;50.878;4.584;2023-03-01T18:32:20;11.00;46.50
37782;DHT22;23621;50.878;4.584;2023-03-01T18:34:48;11.00;46.50